sensor_id;sensor_type;location;lat;lon;timestamp;temperature;humidity
26655;DHT22;14278;50.784;4.630;2024-01-30T00:00:22;12.20;99.90
26655;DHT22;14278;50.784;4.630;2024-01-30T00:02:48;11.90;99.90
26655;DHT22;14278;50.784;4.630;2024-01-30T00:05:13;11.90;99.90
26655;DHT22;14278;50.784;4.630;2024-01-30T00:07:39;11.90;99.90
26655;DHT22;14278;50.784;4.630;2024-01-30T00:10:05;11.90;99.90
26655;DHT22;14278;50.784;4.630;2024-01-30T00:12:31;11.90;99.90
26655;DHT22;14278;50.784;4.630;2024-01-30T00:14:57;12.20;99.90
26655;DHT22;14278;50.784;4.630;2024-01-30T00:17:23;12.10;99.90
26655;DHT22;14278;50.784;4.630;2024-01-30T00:19:50;12.00;99.90
26655;DHT22;14278;50.784;4.630;2024-01-30T00:22:16;11.90;99.90
26655;DHT22;14278;50.784;4.630;2024-01-30T00:24:42;11.90;99.90
26655;DHT22;14278;50.784;4.630;2024-01-30T00:27:08;12.00;99.90
26655;DHT22;14278;50.784;4.630;2024-01-30T00:29:34;11.90;99.90
26655;DHT22;14278;50.784;4.630;2024-01-30T00:35:01;11.80;99.90
26655;DHT22;14278;50.784;4.630;2024-01-30T00:39:55;11.90;99.90
26655;DHT22;14278;50.784;4.630;2024-01-30T00:42:21;12.00;99.90
26655;DHT22;14278;50.784;4.630;2024-01-30T00:44:54;11.90;99.90
26655;DHT22;14278;50.784;4.630;2024-01-30T00:47:20;11.80;99.90
26655;DHT22;14278;50.784;4.630;2024-01-30T00:49:46;11.90;99.90
26655;DHT22;14278;50.784;4.630;2024-01-30T00:52:12;11.90;99.90
26655;DHT22;14278;50.784;4.630;2024-01-30T00:57:13;12.00;99.90
26655;DHT22;14278;50.784;4.630;2024-01-30T00:59:39;12.00;99.90
26655;DHT22;14278;50.784;4.630;2024-01-30T01:02:05;11.90;99.90
26655;DHT22;14278;50.784;4.630;2024-01-30T01:04:32;12.10;99.90
26655;DHT22;14278;50.784;4.630;2024-01-30T01:07:00;12.10;99.90
26655;DHT22;14278;50.784;4.630;2024-01-30T01:12:02;12.00;99.90
26655;DHT22;14278;50.784;4.630;2024-01-30T01:17:03;11.90;99.90
26655;DHT22;14278;50.784;4.630;2024-01-30T01:29:51;12.10;99.90
26655;DHT22;14278;50.784;4.630;2024-01-30T01:32:20;12.00;99.90
26655;DHT22;14278;50.784;4.630;2024-01-30T01:35:05;12.10;99.90
26655;DHT22;14278;50.784;4.630;2024-01-30T01:37:31;12.00;99.90
26655;DHT22;14278;50.784;4.630;2024-01-30T01:39:57;12.30;99.90
26655;DHT22;14278;50.784;4.630;2024-01-30T01:42:26;12.30;99.90
26655;DHT22;14278;50.784;4.630;2024-01-30T01:44:51;12.20;99.90
26655;DHT22;14278;50.784;4.630;2024-01-30T01:50:20;12.10;99.90
26655;DHT22;14278;50.784;4.630;2024-01-30T01:58:44;11.70;99.90
26655;DHT22;14278;50.784;4.630;2024-01-30T02:01:13;11.80;99.90
26655;DHT22;14278;50.784;4.630;2024-01-30T02:12:30;11.70;99.90
26655;DHT22;14278;50.784;4.630;2024-01-30T02:14:57;11.80;99.90
26655;DHT22;14278;50.784;4.630;2024-01-30T02:22:48;12.10;99.90
26655;DHT22;14278;50.784;4.630;2024-01-30T02:25:17;12.30;99.90
26655;DHT22;14278;50.784;4.630;2024-01-30T02:27:57;12.20;99.90
26655;DHT22;14278;50.784;4.630;2024-01-30T02:35:33;11.90;99.90
26655;DHT22;14278;50.784;4.630;2024-01-30T02:37:59;12.00;99.90
26655;DHT22;14278;50.784;4.630;2024-01-30T02:45:36;12.20;99.90
26655;DHT22;14278;50.784;4.630;2024-01-30T02:50:37;12.00;99.90
26655;DHT22;14278;50.784;4.630;2024-01-30T02:53:03;12.00;99.90
26655;DHT22;14278;50.784;4.630;2024-01-30T02:55:29;11.90;99.90
26655;DHT22;14278;50.784;4.630;2024-01-30T03:00:39;11.90;99.90
26655;DHT22;14278;50.784;4.630;2024-01-30T03:05:43;11.70;99.90
26655;DHT22;14278;50.784;4.630;2024-01-30T03:08:09;11.90;99.90
26655;DHT22;14278;50.784;4.630;2024-01-30T03:13:10;12.10;99.90
26655;DHT22;14278;50.784;4.630;2024-01-30T03:15:35;12.40;99.90
26655;DHT22;14278;50.784;4.630;2024-01-30T03:18:02;12.00;99.90
26655;DHT22;14278;50.784;4.630;2024-01-30T03:25:40;12.20;99.90
26655;DHT22;14278;50.784;4.630;2024-01-30T03:28:06;12.10;99.90
26655;DHT22;14278;50.784;4.630;2024-01-30T03:35:43;11.80;99.90
26655;DHT22;14278;50.784;4.630;2024-01-30T03:43:23;12.10;99.90
26655;DHT22;14278;50.784;4.630;2024-01-30T03:48:24;11.50;99.90
26655;DHT22;14278;50.784;4.630;2024-01-30T03:50:51;11.80;99.90
26655;DHT22;14278;50.784;4.630;2024-01-30T03:53:17;12.00;99.90
26655;DHT22;14278;50.784;4.630;2024-01-30T03:55:43;11.90;99.90
26655;DHT22;14278;50.784;4.630;2024-01-30T04:00:44;11.80;99.90
26655;DHT22;14278;50.784;4.630;2024-01-30T04:03:10;11.90;99.90
26655;DHT22;14278;50.784;4.630;2024-01-30T04:05:38;11.80;99.90
26655;DHT22;14278;50.784;4.630;2024-01-30T04:08:04;11.90;99.90
26655;DHT22;14278;50.784;4.630;2024-01-30T04:10:30;12.00;99.90
26655;DHT22;14278;50.784;4.630;2024-01-30T04:12:55;11.90;99.90
26655;DHT22;14278;50.784;4.630;2024-01-30T04:20:59;12.20;99.90
26655;DHT22;14278;50.784;4.630;2024-01-30T04:23:42;12.50;99.90
26655;DHT22;14278;50.784;4.630;2024-01-30T04:28:44;12.60;99.90
26655;DHT22;14278;50.784;4.630;2024-01-30T04:33:46;12.50;99.90
26655;DHT22;14278;50.784;4.630;2024-01-30T04:44:04;11.90;99.90
26655;DHT22;14278;50.784;4.630;2024-01-30T04:46:30;12.10;99.90
26655;DHT22;14278;50.784;4.630;2024-01-30T04:48:56;11.90;99.90
26655;DHT22;14278;50.784;4.630;2024-01-30T04:51:21;11.80;99.90
26655;DHT22;14278;50.784;4.630;2024-01-30T04:56:22;12.10;99.90
26655;DHT22;14278;50.784;4.630;2024-01-30T04:58:48;12.10;99.90
26655;DHT22;14278;50.784;4.630;2024-01-30T05:01:17;12.10;99.90
26655;DHT22;14278;50.784;4.630;2024-01-30T05:14:05;11.90;99.90
26655;DHT22;14278;50.784;4.630;2024-01-30T05:19:06;12.50;99.90
26655;DHT22;14278;50.784;4.630;2024-01-30T05:21:32;12.70;99.90
26655;DHT22;14278;50.784;4.630;2024-01-30T05:23:58;12.40;99.90
26655;DHT22;14278;50.784;4.630;2024-01-30T05:29:00;12.60;99.90
26655;DHT22;14278;50.784;4.630;2024-01-30T05:31:30;12.50;99.90
26655;DHT22;14278;50.784;4.630;2024-01-30T05:34:07;12.30;99.90
26655;DHT22;14278;50.784;4.630;2024-01-30T05:39:13;12.40;99.90
26655;DHT22;14278;50.784;4.630;2024-01-30T05:44:18;12.50;99.90
26655;DHT22;14278;50.784;4.630;2024-01-30T05:49:19;12.20;99.90
26655;DHT22;14278;50.784;4.630;2024-01-30T05:59:49;12.50;99.90
26655;DHT22;14278;50.784;4.630;2024-01-30T06:04:52;12.40;99.90
26655;DHT22;14278;50.784;4.630;2024-01-30T06:07:18;12.30;99.90
26655;DHT22;14278;50.784;4.630;2024-01-30T06:12:38;12.00;99.90
26655;DHT22;14278;50.784;4.630;2024-01-30T06:17:39;12.40;99.90
26655;DHT22;14278;50.784;4.630;2024-01-30T06:20:06;12.30;99.90
26655;DHT22;14278;50.784;4.630;2024-01-30T06:25:08;11.80;99.90
26655;DHT22;14278;50.784;4.630;2024-01-30T06:27:34;12.10;99.90
26655;DHT22;14278;50.784;4.630;2024-01-30T06:35:09;12.10;99.90
26655;DHT22;14278;50.784;4.630;2024-01-30T06:40:18;11.90;99.90
26655;DHT22;14278;50.784;4.630;2024-01-30T06:42:44;11.90;99.90
26655;DHT22;14278;50.784;4.630;2024-01-30T06:45:26;11.90;99.90
26655;DHT22;14278;50.784;4.630;2024-01-30T06:47:51;11.70;99.90
26655;DHT22;14278;50.784;4.630;2024-01-30T06:58:11;12.10;99.90
26655;DHT22;14278;50.784;4.630;2024-01-30T07:00:37;11.90;99.90
26655;DHT22;14278;50.784;4.630;2024-01-30T07:03:03;11.70;99.90
26655;DHT22;14278;50.784;4.630;2024-01-30T07:05:28;11.80;99.90
26655;DHT22;14278;50.784;4.630;2024-01-30T07:07:55;12.00;99.90
26655;DHT22;14278;50.784;4.630;2024-01-30T07:10:20;12.20;99.90
26655;DHT22;14278;50.784;4.630;2024-01-30T07:12:46;12.30;99.90
26655;DHT22;14278;50.784;4.630;2024-01-30T07:15:12;12.40;99.90
26655;DHT22;14278;50.784;4.630;2024-01-30T07:17:42;12.30;99.90
26655;DHT22;14278;50.784;4.630;2024-01-30T07:20:08;12.30;99.90
26655;DHT22;14278;50.784;4.630;2024-01-30T07:22:37;12.30;99.90
26655;DHT22;14278;50.784;4.630;2024-01-30T07:25:03;12.10;99.90
26655;DHT22;14278;50.784;4.630;2024-01-30T07:27:29;11.80;99.90
26655;DHT22;14278;50.784;4.630;2024-01-30T07:29:55;11.70;99.90
26655;DHT22;14278;50.784;4.630;2024-01-30T07:32:22;11.60;99.90
26655;DHT22;14278;50.784;4.630;2024-01-30T07:34:49;11.80;99.90
26655;DHT22;14278;50.784;4.630;2024-01-30T07:37:14;12.00;99.90
26655;DHT22;14278;50.784;4.630;2024-01-30T07:39:41;12.00;99.90
26655;DHT22;14278;50.784;4.630;2024-01-30T07:42:08;11.80;99.90
26655;DHT22;14278;50.784;4.630;2024-01-30T07:44:34;11.60;99.90
26655;DHT22;14278;50.784;4.630;2024-01-30T07:47:00;11.30;99.90
26655;DHT22;14278;50.784;4.630;2024-01-30T07:49:25;11.40;99.90
26655;DHT22;14278;50.784;4.630;2024-01-30T07:51:51;11.80;99.90
26655;DHT22;14278;50.784;4.630;2024-01-30T07:54:16;11.90;99.90
26655;DHT22;14278;50.784;4.630;2024-01-30T07:56:43;12.00;99.90
26655;DHT22;14278;50.784;4.630;2024-01-30T07:59:12;11.80;99.90
26655;DHT22;14278;50.784;4.630;2024-01-30T08:01:38;11.70;99.90
26655;DHT22;14278;50.784;4.630;2024-01-30T08:04:04;11.90;99.90
26655;DHT22;14278;50.784;4.630;2024-01-30T08:06:29;11.80;99.90
26655;DHT22;14278;50.784;4.630;2024-01-30T08:08:55;11.80;99.90
26655;DHT22;14278;50.784;4.630;2024-01-30T08:11:22;12.00;99.90
26655;DHT22;14278;50.784;4.630;2024-01-30T08:13:54;12.40;99.90
26655;DHT22;14278;50.784;4.630;2024-01-30T08:16:20;12.40;99.90
26655;DHT22;14278;50.784;4.630;2024-01-30T08:18:45;12.40;99.90
26655;DHT22;14278;50.784;4.630;2024-01-30T08:21:11;12.40;99.90
26655;DHT22;14278;50.784;4.630;2024-01-30T08:23:38;12.20;99.90
26655;DHT22;14278;50.784;4.630;2024-01-30T08:26:07;12.20;99.90
26655;DHT22;14278;50.784;4.630;2024-01-30T08:28:33;12.60;99.90
26655;DHT22;14278;50.784;4.630;2024-01-30T08:30:59;12.80;99.90
26655;DHT22;14278;50.784;4.630;2024-01-30T08:33:24;12.70;99.90
26655;DHT22;14278;50.784;4.630;2024-01-30T08:35:50;12.60;99.90
26655;DHT22;14278;50.784;4.630;2024-01-30T08:38:16;12.30;99.90
26655;DHT22;14278;50.784;4.630;2024-01-30T08:40:41;12.10;99.90
26655;DHT22;14278;50.784;4.630;2024-01-30T08:43:07;12.30;99.90
26655;DHT22;14278;50.784;4.630;2024-01-30T08:45:35;12.20;99.90
26655;DHT22;14278;50.784;4.630;2024-01-30T08:48:01;12.30;99.90
26655;DHT22;14278;50.784;4.630;2024-01-30T08:50:26;12.30;99.90
26655;DHT22;14278;50.784;4.630;2024-01-30T08:52:52;12.10;99.90
26655;DHT22;14278;50.784;4.630;2024-01-30T08:55:18;12.50;99.90
26655;DHT22;14278;50.784;4.630;2024-01-30T08:57:43;12.60;99.90
26655;DHT22;14278;50.784;4.630;2024-01-30T09:00:09;12.40;99.90
26655;DHT22;14278;50.784;4.630;2024-01-30T09:02:35;12.50;99.90
26655;DHT22;14278;50.784;4.630;2024-01-30T09:05:01;12.60;99.90
26655;DHT22;14278;50.784;4.630;2024-01-30T09:07:27;12.70;99.90
26655;DHT22;14278;50.784;4.630;2024-01-30T09:09:52;12.80;99.90
26655;DHT22;14278;50.784;4.630;2024-01-30T09:12:18;13.30;99.90
26655;DHT22;14278;50.784;4.630;2024-01-30T09:14:44;13.30;99.90
26655;DHT22;14278;50.784;4.630;2024-01-30T09:17:10;13.10;99.90
26655;DHT22;14278;50.784;4.630;2024-01-30T09:19:36;13.10;99.90
26655;DHT22;14278;50.784;4.630;2024-01-30T09:22:01;13.20;99.90
26655;DHT22;14278;50.784;4.630;2024-01-30T09:24:27;13.30;99.90
26655;DHT22;14278;50.784;4.630;2024-01-30T09:26:53;13.10;99.90
26655;DHT22;14278;50.784;4.630;2024-01-30T09:29:19;12.90;99.90
26655;DHT22;14278;50.784;4.630;2024-01-30T09:31:47;12.70;99.90
26655;DHT22;14278;50.784;4.630;2024-01-30T09:34:13;12.60;99.90
26655;DHT22;14278;50.784;4.630;2024-01-30T09:36:39;12.90;99.90
26655;DHT22;14278;50.784;4.630;2024-01-30T09:39:05;13.10;99.90
26655;DHT22;14278;50.784;4.630;2024-01-30T09:41:32;13.00;99.90
26655;DHT22;14278;50.784;4.630;2024-01-30T09:44:00;12.70;99.90
26655;DHT22;14278;50.784;4.630;2024-01-30T09:46:28;13.20;99.90
26655;DHT22;14278;50.784;4.630;2024-01-30T09:48:57;13.10;99.90
26655;DHT22;14278;50.784;4.630;2024-01-30T09:51:23;12.90;99.90
26655;DHT22;14278;50.784;4.630;2024-01-30T09:53:51;13.20;99.90
26655;DHT22;14278;50.784;4.630;2024-01-30T09:56:17;13.00;99.90
26655;DHT22;14278;50.784;4.630;2024-01-30T09:58:43;13.10;99.90
26655;DHT22;14278;50.784;4.630;2024-01-30T10:01:08;12.70;99.90
26655;DHT22;14278;50.784;4.630;2024-01-30T10:03:34;12.50;99.90
26655;DHT22;14278;50.784;4.630;2024-01-30T10:06:01;12.60;99.90
26655;DHT22;14278;50.784;4.630;2024-01-30T10:08:27;12.60;99.90
26655;DHT22;14278;50.784;4.630;2024-01-30T10:10:52;12.80;99.90
26655;DHT22;14278;50.784;4.630;2024-01-30T10:13:18;12.70;99.90
26655;DHT22;14278;50.784;4.630;2024-01-30T10:15:44;12.80;99.90
26655;DHT22;14278;50.784;4.630;2024-01-30T10:18:10;12.60;99.90
26655;DHT22;14278;50.784;4.630;2024-01-30T10:20:36;12.70;99.90
26655;DHT22;14278;50.784;4.630;2024-01-30T10:23:02;12.60;99.90
26655;DHT22;14278;50.784;4.630;2024-01-30T10:25:30;12.40;99.90
26655;DHT22;14278;50.784;4.630;2024-01-30T10:27:56;12.50;99.90
26655;DHT22;14278;50.784;4.630;2024-01-30T10:30:24;12.30;99.90
26655;DHT22;14278;50.784;4.630;2024-01-30T10:32:50;12.20;99.90
26655;DHT22;14278;50.784;4.630;2024-01-30T10:35:17;12.50;99.90
26655;DHT22;14278;50.784;4.630;2024-01-30T10:37:49;12.50;99.90
26655;DHT22;14278;50.784;4.630;2024-01-30T10:40:15;12.80;99.90
26655;DHT22;14278;50.784;4.630;2024-01-30T10:42:45;13.20;99.90
26655;DHT22;14278;50.784;4.630;2024-01-30T10:45:12;12.70;99.90
26655;DHT22;14278;50.784;4.630;2024-01-30T10:47:40;12.70;99.90
26655;DHT22;14278;50.784;4.630;2024-01-30T10:50:08;12.60;99.90
26655;DHT22;14278;50.784;4.630;2024-01-30T10:52:34;13.00;99.90
26655;DHT22;14278;50.784;4.630;2024-01-30T10:55:01;12.80;99.90
26655;DHT22;14278;50.784;4.630;2024-01-30T10:57:30;12.60;99.90
26655;DHT22;14278;50.784;4.630;2024-01-30T10:59:58;12.70;99.90
26655;DHT22;14278;50.784;4.630;2024-01-30T11:02:24;12.80;99.90
26655;DHT22;14278;50.784;4.630;2024-01-30T11:04:55;12.70;99.90
26655;DHT22;14278;50.784;4.630;2024-01-30T11:07:26;12.70;99.90
26655;DHT22;14278;50.784;4.630;2024-01-30T11:09:53;12.70;99.90
26655;DHT22;14278;50.784;4.630;2024-01-30T11:12:23;12.50;99.90
26655;DHT22;14278;50.784;4.630;2024-01-30T11:15:01;12.50;99.90
26655;DHT22;14278;50.784;4.630;2024-01-30T11:17:28;12.30;99.90
26655;DHT22;14278;50.784;4.630;2024-01-30T11:19:54;12.30;99.90
26655;DHT22;14278;50.784;4.630;2024-01-30T11:22:22;12.30;99.90
26655;DHT22;14278;50.784;4.630;2024-01-30T11:24:48;12.10;99.90
26655;DHT22;14278;50.784;4.630;2024-01-30T11:27:15;11.90;99.90
26655;DHT22;14278;50.784;4.630;2024-01-30T11:29:40;11.90;99.90
26655;DHT22;14278;50.784;4.630;2024-01-30T11:32:06;12.00;99.90
26655;DHT22;14278;50.784;4.630;2024-01-30T11:34:33;11.90;99.90
26655;DHT22;14278;50.784;4.630;2024-01-30T11:37:09;11.80;99.90
26655;DHT22;14278;50.784;4.630;2024-01-30T11:39:36;12.00;99.90
26655;DHT22;14278;50.784;4.630;2024-01-30T11:42:03;12.20;99.90
26655;DHT22;14278;50.784;4.630;2024-01-30T11:44:30;12.10;99.90
26655;DHT22;14278;50.784;4.630;2024-01-30T11:46:56;12.00;99.90
26655;DHT22;14278;50.784;4.630;2024-01-30T11:49:23;12.10;99.90
26655;DHT22;14278;50.784;4.630;2024-01-30T11:51:51;12.00;99.90
26655;DHT22;14278;50.784;4.630;2024-01-30T11:54:18;12.20;99.90
26655;DHT22;14278;50.784;4.630;2024-01-30T11:56:44;12.30;99.90
26655;DHT22;14278;50.784;4.630;2024-01-30T11:59:10;12.60;99.90
26655;DHT22;14278;50.784;4.630;2024-01-30T12:01:36;12.70;99.90
26655;DHT22;14278;50.784;4.630;2024-01-30T12:04:02;12.60;99.90
26655;DHT22;14278;50.784;4.630;2024-01-30T12:06:28;12.70;99.90
26655;DHT22;14278;50.784;4.630;2024-01-30T12:09:05;13.10;99.90
26655;DHT22;14278;50.784;4.630;2024-01-30T12:15:09;12.70;99.90
26655;DHT22;14278;50.784;4.630;2024-01-30T12:17:35;12.40;99.90
26655;DHT22;14278;50.784;4.630;2024-01-30T12:20:09;12.80;99.90
26655;DHT22;14278;50.784;4.630;2024-01-30T12:22:40;12.50;99.90
26655;DHT22;14278;50.784;4.630;2024-01-30T12:25:13;12.30;99.90
26655;DHT22;14278;50.784;4.630;2024-01-30T12:27:42;12.30;99.90
26655;DHT22;14278;50.784;4.630;2024-01-30T12:30:10;12.60;99.90
26655;DHT22;14278;50.784;4.630;2024-01-30T12:33:18;12.50;99.90
26655;DHT22;14278;50.784;4.630;2024-01-30T12:35:47;12.50;99.90
26655;DHT22;14278;50.784;4.630;2024-01-30T12:38:14;12.00;99.90
26655;DHT22;14278;50.784;4.630;2024-01-30T12:40:45;12.30;99.90
26655;DHT22;14278;50.784;4.630;2024-01-30T12:43:11;12.10;99.90
26655;DHT22;14278;50.784;4.630;2024-01-30T12:45:36;12.50;99.90
26655;DHT22;14278;50.784;4.630;2024-01-30T12:48:21;12.30;99.90
26655;DHT22;14278;50.784;4.630;2024-01-30T12:50:47;12.10;99.90
26655;DHT22;14278;50.784;4.630;2024-01-30T12:53:33;12.10;99.90
26655;DHT22;14278;50.784;4.630;2024-01-30T13:05:17;12.40;99.90
26655;DHT22;14278;50.784;4.630;2024-01-30T13:07:43;12.30;99.90
26655;DHT22;14278;50.784;4.630;2024-01-30T13:10:10;12.20;99.90
26655;DHT22;14278;50.784;4.630;2024-01-30T13:12:36;12.30;99.90
26655;DHT22;14278;50.784;4.630;2024-01-30T13:15:25;12.30;99.90
26655;DHT22;14278;50.784;4.630;2024-01-30T13:17:50;12.30;99.90
26655;DHT22;14278;50.784;4.630;2024-01-30T13:20:18;12.50;99.90
26655;DHT22;14278;50.784;4.630;2024-01-30T13:22:46;12.70;99.90
26655;DHT22;14278;50.784;4.630;2024-01-30T13:28:11;12.80;99.90
26655;DHT22;14278;50.784;4.630;2024-01-30T13:30:37;13.00;99.90
26655;DHT22;14278;50.784;4.630;2024-01-30T13:33:03;12.70;99.90
26655;DHT22;14278;50.784;4.630;2024-01-30T13:35:34;12.40;99.90
26655;DHT22;14278;50.784;4.630;2024-01-30T13:38:05;12.70;99.90
26655;DHT22;14278;50.784;4.630;2024-01-30T13:40:31;12.40;99.90
26655;DHT22;14278;50.784;4.630;2024-01-30T13:45:32;12.50;99.90
26655;DHT22;14278;50.784;4.630;2024-01-30T13:47:58;12.70;99.90
26655;DHT22;14278;50.784;4.630;2024-01-30T13:50:24;12.60;99.90
26655;DHT22;14278;50.784;4.630;2024-01-30T13:52:51;12.30;99.90
26655;DHT22;14278;50.784;4.630;2024-01-30T13:55:16;12.50;99.90
26655;DHT22;14278;50.784;4.630;2024-01-30T13:57:42;12.40;99.90
26655;DHT22;14278;50.784;4.630;2024-01-30T14:00:08;12.40;99.90
26655;DHT22;14278;50.784;4.630;2024-01-30T14:02:34;12.30;99.90
26655;DHT22;14278;50.784;4.630;2024-01-30T14:05:00;12.60;99.90
26655;DHT22;14278;50.784;4.630;2024-01-30T14:07:26;12.50;99.90
26655;DHT22;14278;50.784;4.630;2024-01-30T14:09:51;12.20;99.90
26655;DHT22;14278;50.784;4.630;2024-01-30T14:12:17;12.00;99.90
26655;DHT22;14278;50.784;4.630;2024-01-30T14:14:43;12.30;99.90
26655;DHT22;14278;50.784;4.630;2024-01-30T14:19:44;12.20;99.90
26655;DHT22;14278;50.784;4.630;2024-01-30T14:22:10;12.30;99.90
26655;DHT22;14278;50.784;4.630;2024-01-30T14:27:07;12.50;99.90
26655;DHT22;14278;50.784;4.630;2024-01-30T14:29:46;12.60;99.90
26655;DHT22;14278;50.784;4.630;2024-01-30T14:32:11;12.50;99.90
26655;DHT22;14278;50.784;4.630;2024-01-30T14:34:38;12.50;99.90
26655;DHT22;14278;50.784;4.630;2024-01-30T14:39:39;12.50;99.90
26655;DHT22;14278;50.784;4.630;2024-01-30T14:47:17;12.50;99.90
26655;DHT22;14278;50.784;4.630;2024-01-30T14:52:18;12.20;99.90
26655;DHT22;14278;50.784;4.630;2024-01-30T14:57:19;12.10;99.90
26655;DHT22;14278;50.784;4.630;2024-01-30T14:59:45;12.00;99.90
26655;DHT22;14278;50.784;4.630;2024-01-30T15:02:11;11.60;99.90
26655;DHT22;14278;50.784;4.630;2024-01-30T15:07:06;11.70;99.90
26655;DHT22;14278;50.784;4.630;2024-01-30T15:09:32;11.90;99.90
26655;DHT22;14278;50.784;4.630;2024-01-30T15:14:33;11.70;99.90
26655;DHT22;14278;50.784;4.630;2024-01-30T15:16:59;11.80;99.90
26655;DHT22;14278;50.784;4.630;2024-01-30T15:19:25;11.80;99.90
26655;DHT22;14278;50.784;4.630;2024-01-30T15:24:26;11.90;99.90
26655;DHT22;14278;50.784;4.630;2024-01-30T15:29:28;11.60;99.90
26655;DHT22;14278;50.784;4.630;2024-01-30T15:40:06;11.70;99.90
26655;DHT22;14278;50.784;4.630;2024-01-30T15:42:34;11.20;99.90
26655;DHT22;14278;50.784;4.630;2024-01-30T15:45:20;11.30;99.90
26655;DHT22;14278;50.784;4.630;2024-01-30T15:47:46;11.20;99.90
26655;DHT22;14278;50.784;4.630;2024-01-30T15:52:42;11.00;99.90
26655;DHT22;14278;50.784;4.630;2024-01-30T15:57:43;11.20;99.90
26655;DHT22;14278;50.784;4.630;2024-01-30T16:00:11;11.20;99.90
26655;DHT22;14278;50.784;4.630;2024-01-30T16:08:01;11.70;99.90
26655;DHT22;14278;50.784;4.630;2024-01-30T16:15:38;11.30;99.90
26655;DHT22;14278;50.784;4.630;2024-01-30T16:20:53;10.80;99.90
26655;DHT22;14278;50.784;4.630;2024-01-30T16:23:19;11.10;99.90
26655;DHT22;14278;50.784;4.630;2024-01-30T16:25:45;10.90;99.90
26655;DHT22;14278;50.784;4.630;2024-01-30T16:28:11;11.10;99.90
26655;DHT22;14278;50.784;4.630;2024-01-30T16:30:37;11.10;99.90
26655;DHT22;14278;50.784;4.630;2024-01-30T16:33:03;11.20;99.90
26655;DHT22;14278;50.784;4.630;2024-01-30T16:35:32;10.90;99.90
26655;DHT22;14278;50.784;4.630;2024-01-30T16:38:08;10.70;99.90
26655;DHT22;14278;50.784;4.630;2024-01-30T16:40:33;10.60;99.90
26655;DHT22;14278;50.784;4.630;2024-01-30T16:45:56;10.70;99.90
26655;DHT22;14278;50.784;4.630;2024-01-30T16:48:21;11.00;99.90
26655;DHT22;14278;50.784;4.630;2024-01-30T16:50:48;11.20;99.90
26655;DHT22;14278;50.784;4.630;2024-01-30T16:53:14;11.20;99.90
26655;DHT22;14278;50.784;4.630;2024-01-30T17:00:38;10.40;99.90
26655;DHT22;14278;50.784;4.630;2024-01-30T17:03:04;10.50;99.90
26655;DHT22;14278;50.784;4.630;2024-01-30T17:05:30;10.50;99.90
26655;DHT22;14278;50.784;4.630;2024-01-30T17:07:56;10.50;99.90
26655;DHT22;14278;50.784;4.630;2024-01-30T17:10:24;10.50;99.90
26655;DHT22;14278;50.784;4.630;2024-01-30T17:12:49;10.70;99.90
26655;DHT22;14278;50.784;4.630;2024-01-30T17:26:11;10.90;99.90
26655;DHT22;14278;50.784;4.630;2024-01-30T17:28:37;10.80;99.90
26655;DHT22;14278;50.784;4.630;2024-01-30T17:36:13;11.00;99.90
26655;DHT22;14278;50.784;4.630;2024-01-30T17:38:39;10.80;99.90
26655;DHT22;14278;50.784;4.630;2024-01-30T17:48:46;11.00;99.90
26655;DHT22;14278;50.784;4.630;2024-01-30T17:51:12;11.20;99.90
26655;DHT22;14278;50.784;4.630;2024-01-30T17:53:37;11.20;99.90
26655;DHT22;14278;50.784;4.630;2024-01-30T17:56:11;10.70;99.90
26655;DHT22;14278;50.784;4.630;2024-01-30T17:58:37;10.90;99.90
26655;DHT22;14278;50.784;4.630;2024-01-30T18:01:03;10.70;99.90
26655;DHT22;14278;50.784;4.630;2024-01-30T18:03:29;10.90;99.90
26655;DHT22;14278;50.784;4.630;2024-01-30T18:05:55;10.90;99.90
26655;DHT22;14278;50.784;4.630;2024-01-30T18:08:28;10.90;99.90
26655;DHT22;14278;50.784;4.630;2024-01-30T18:11:44;10.70;99.90
26655;DHT22;14278;50.784;4.630;2024-01-30T18:14:29;10.80;99.90
26655;DHT22;14278;50.784;4.630;2024-01-30T18:29:49;11.20;99.90
26655;DHT22;14278;50.784;4.630;2024-01-30T18:32:15;11.10;99.90
26655;DHT22;14278;50.784;4.630;2024-01-30T18:34:41;11.10;99.90
26655;DHT22;14278;50.784;4.630;2024-01-30T18:37:07;11.20;99.90
26655;DHT22;14278;50.784;4.630;2024-01-30T18:39:33;10.90;99.90
26655;DHT22;14278;50.784;4.630;2024-01-30T18:41:59;10.70;99.90
26655;DHT22;14278;50.784;4.630;2024-01-30T18:47:08;10.80;99.90
26655;DHT22;14278;50.784;4.630;2024-01-30T18:52:09;10.70;99.90
26655;DHT22;14278;50.784;4.630;2024-01-30T18:54:35;10.40;99.90
26655;DHT22;14278;50.784;4.630;2024-01-30T18:57:01;10.80;99.90
26655;DHT22;14278;50.784;4.630;2024-01-30T18:59:26;11.00;99.90
26655;DHT22;14278;50.784;4.630;2024-01-30T19:01:58;11.30;99.90
26655;DHT22;14278;50.784;4.630;2024-01-30T19:12:26;11.70;99.90
26655;DHT22;14278;50.784;4.630;2024-01-30T19:17:27;12.00;99.90
26655;DHT22;14278;50.784;4.630;2024-01-30T19:19:53;11.50;99.90
26655;DHT22;14278;50.784;4.630;2024-01-30T19:22:19;10.80;99.90
26655;DHT22;14278;50.784;4.630;2024-01-30T19:24:44;10.90;99.90
26655;DHT22;14278;50.784;4.630;2024-01-30T19:27:10;10.50;99.90
26655;DHT22;14278;50.784;4.630;2024-01-30T19:29:36;10.60;99.90
26655;DHT22;14278;50.784;4.630;2024-01-30T19:32:02;10.60;99.90
26655;DHT22;14278;50.784;4.630;2024-01-30T19:34:28;10.90;99.90
26655;DHT22;14278;50.784;4.630;2024-01-30T19:36:53;10.90;99.90
26655;DHT22;14278;50.784;4.630;2024-01-30T19:39:19;11.20;99.90
26655;DHT22;14278;50.784;4.630;2024-01-30T19:41:45;11.30;99.90
26655;DHT22;14278;50.784;4.630;2024-01-30T19:44:11;11.20;99.90
26655;DHT22;14278;50.784;4.630;2024-01-30T19:46:37;10.50;99.90
26655;DHT22;14278;50.784;4.630;2024-01-30T19:49:02;10.60;99.90
26655;DHT22;14278;50.784;4.630;2024-01-30T19:51:28;10.50;99.90
26655;DHT22;14278;50.784;4.630;2024-01-30T19:53:54;10.70;99.90
26655;DHT22;14278;50.784;4.630;2024-01-30T19:56:20;10.90;99.90
26655;DHT22;14278;50.784;4.630;2024-01-30T19:58:47;11.00;99.90
26655;DHT22;14278;50.784;4.630;2024-01-30T20:01:13;11.00;99.90
26655;DHT22;14278;50.784;4.630;2024-01-30T20:03:38;10.70;99.90
26655;DHT22;14278;50.784;4.630;2024-01-30T20:06:05;10.90;99.90
26655;DHT22;14278;50.784;4.630;2024-01-30T20:08:31;10.60;99.90
26655;DHT22;14278;50.784;4.630;2024-01-30T20:10:59;10.50;99.90
26655;DHT22;14278;50.784;4.630;2024-01-30T20:13:25;10.50;99.90
26655;DHT22;14278;50.784;4.630;2024-01-30T20:15:51;10.40;99.90
26655;DHT22;14278;50.784;4.630;2024-01-30T20:18:30;10.50;99.90
26655;DHT22;14278;50.784;4.630;2024-01-30T20:20:58;10.20;99.90
26655;DHT22;14278;50.784;4.630;2024-01-30T20:23:25;10.40;99.90
26655;DHT22;14278;50.784;4.630;2024-01-30T20:25:51;10.60;99.90
26655;DHT22;14278;50.784;4.630;2024-01-30T20:28:16;11.00;99.90
26655;DHT22;14278;50.784;4.630;2024-01-30T20:30:42;10.50;99.90